Time;durP1;ratioP1;P1;durP2;ratioP2;P2;SDS_P1;SDS_P2;PMS_P1;PMS_P2;Temp;Humidity;BMP_temperature;BMP_pressure;BME280_temperature;BME280_humidity;BME280_pressure;Samples;Min_cycle;Max_cycle;Signal;HPM_P1;HPM_P2
2023/12/13 00:03:40;;;;;;;4.20;3.38;;;;;;;-5.04;96.33;100286.41;10444498;28;20051;-59
2023/12/13 00:08:44;;;;;;;4.75;3.72;;;;;;;-5.03;96.68;100293.41;10441763;28;20041;-59
2023/12/13 00:13:48;;;;;;;5.05;3.40;;;;;;;-5.00;96.74;100293.06;10439184;28;20041;-59
2023/12/13 00:18:51;;;;;;;5.50;3.60;;;;;;;-4.98;96.74;100297.22;10438840;28;20037;-59
2023/12/13 00:23:53;;;;;;;5.43;3.40;;;;;;;-4.96;96.83;100295.16;10435839;28;20051;-59
2023/12/13 00:28:57;;;;;;;5.55;3.65;;;;;;;-4.96;97.20;100297.00;10441571;28;20040;-59
2023/12/13 00:33:59;;;;;;;5.40;3.88;;;;;;;-4.90;97.32;100304.28;10433985;28;20038;-58
2023/12/13 00:39:02;;;;;;;7.65;3.85;;;;;;;-4.90;97.52;100304.28;10432921;28;20446;-59
2023/12/13 00:44:05;;;;;;;8.93;5.30;;;;;;;-4.90;98.22;100294.41;10436119;28;20049;-59
2023/12/13 00:49:08;;;;;;;10.77;6.13;;;;;;;-4.90;98.70;100289.03;10429376;28;20428;-59
2023/12/13 00:54:10;;;;;;;8.27;4.65;;;;;;;-4.86;99.58;100284.13;10436162;28;20033;-59
2023/12/13 00:59:13;;;;;;;10.05;5.75;;;;;;;-4.80;99.60;100285.25;10434617;28;20046;-59
2023/12/13 01:04:15;;;;;;;11.40;5.78;;;;;;;-4.81;99.87;100286.28;10442274;28;20048;-60
2023/12/13 01:09:17;;;;;;;7.03;4.25;;;;;;;-4.78;100.00;100276.00;10441317;28;20048;-61
2023/12/13 01:14:20;;;;;;;6.03;3.70;;;;;;;-4.73;100.00;100281.59;10443028;28;20531;-59
2023/12/13 01:19:22;;;;;;;8.05;4.22;;;;;;;-4.74;100.00;100282.63;10436168;28;20045;-59
2023/12/13 01:24:24;;;;;;;5.75;2.47;;;;;;;-4.72;100.00;100269.88;10440679;28;20052;-60
2023/12/13 01:29:27;;;;;;;6.75;3.72;;;;;;;-4.68;100.00;100279.22;10441621;28;20505;-60
2023/12/13 01:34:30;;;;;;;6.88;4.25;;;;;;;-4.68;100.00;100281.88;10434973;28;20037;-59
2023/12/13 01:39:32;;;;;;;2.67;1.60;;;;;;;-4.68;100.00;100265.81;10459859;28;20046;-59
2023/12/13 01:44:34;;;;;;;4.47;3.20;;;;;;;-4.63;100.00;100263.41;10426658;28;20056;-59
2023/12/13 01:49:37;;;;;;;5.60;3.30;;;;;;;-4.57;100.00;100280.53;10423155;28;20037;-58
2023/12/13 01:54:39;;;;;;;7.15;3.67;;;;;;;-4.56;100.00;100266.13;10432461;28;20044;-59
2023/12/13 01:59:41;;;;;;;5.50;3.42;;;;;;;-4.51;100.00;100260.19;10421240;28;20456;-60
2023/12/13 02:04:45;;;;;;;5.45;3.05;;;;;;;-4.47;100.00;100262.31;10435059;28;20044;-59
2023/12/13 02:09:48;;;;;;;5.00;3.40;;;;;;;-4.44;99.87;100261.91;10437901;28;20038;-58
2023/12/13 02:14:50;;;;;;;4.03;2.58;;;;;;;-4.41;100.00;100258.84;10441085;28;20029;-59
2023/12/13 02:19:52;;;;;;;5.97;2.95;;;;;;;-4.40;100.00;100254.31;10441405;28;20048;-59
2023/12/13 02:24:56;;;;;;;5.10;2.85;;;;;;;-4.38;100.00;100253.09;10443883;28;20045;-60
2023/12/13 02:29:59;;;;;;;6.95;2.90;;;;;;;-4.34;99.83;100251.72;10442245;28;20033;-60
2023/12/13 02:35:01;;;;;;;5.50;3.08;;;;;;;-4.31;100.00;100256.66;10439112;28;20590;-60
2023/12/13 02:40:06;;;;;;;4.32;2.28;;;;;;;-4.27;99.55;100251.75;10430533;28;20405;-60
2023/12/13 02:45:11;;;;;;;4.35;3.00;;;;;;;-4.26;99.45;100253.41;10436367;28;20064;-59
2023/12/13 02:50:14;;;;;;;4.22;2.30;;;;;;;-4.22;99.31;100264.56;10434939;28;20619;-59
2023/12/13 02:55:16;;;;;;;5.25;3.00;;;;;;;-4.21;99.70;100245.59;10427063;28;20041;-59
2023/12/13 03:00:19;;;;;;;2.45;1.77;;;;;;;-4.21;100.00;100250.13;10431985;28;20052;-59
2023/12/13 03:05:22;;;;;;;5.53;3.42;;;;;;;-4.20;100.00;100247.25;10432148;28;20041;-59
2023/12/13 03:10:25;;;;;;;6.47;2.97;;;;;;;-4.18;100.00;100244.38;10419704;28;20037;-60
2023/12/13 03:15:28;;;;;;;3.38;2.60;;;;;;;-4.20;100.00;100249.94;10437263;28;20402;-60
2023/12/13 03:20:33;;;;;;;3.83;2.85;;;;;;;-4.15;100.00;100244.84;10433701;28;20048;-59
2023/12/13 03:25:35;;;;;;;6.80;3.78;;;;;;;-4.17;100.00;100254.91;10431121;28;20049;-59
2023/12/13 03:30:38;;;;;;;6.07;3.22;;;;;;;-4.22;100.00;100245.81;10438123;28;20033;-58
2023/12/13 03:35:40;;;;;;;3.72;2.80;;;;;;;-4.18;100.00;100250.56;10431625;28;20038;-60
2023/12/13 03:40:42;;;;;;;4.97;3.55;;;;;;;-4.16;100.00;100245.03;10445580;28;20044;-59
2023/12/13 03:45:45;;;;;;;6.78;2.75;;;;;;;-4.09;100.00;100244.06;10436611;28;20048;-59
2023/12/13 03:50:47;;;;;;;4.50;2.80;;;;;;;-4.11;100.00;100245.28;10438996;28;20036;-60
2023/12/13 03:55:51;;;;;;;2.22;1.65;;;;;;;-4.09;100.00;100237.88;10441176;28;20476;-60
2023/12/13 04:00:54;;;;;;;1.30;1.17;;;;;;;-4.06;100.00;100251.69;10435554;28;20033;-61
2023/12/13 04:05:58;;;;;;;3.80;2.08;;;;;;;-4.03;100.00;100264.69;10440764;28;20519;-60
2023/12/13 04:11:00;;;;;;;3.28;2.35;;;;;;;-4.01;100.00;100254.59;10442351;28;20504;-60
2023/12/13 04:16:03;;;;;;;0.63;0.63;;;;;;;-3.93;100.00;100240.25;10434568;28;20042;-59
2023/12/13 04:21:05;;;;;;;3.38;1.73;;;;;;;-3.92;100.00;100249.09;10443949;28;20519;-60
2023/12/13 04:26:08;;;;;;;2.55;1.80;;;;;;;-3.87;100.00;100235.94;10419256;28;20041;-60
2023/12/13 04:31:10;;;;;;;2.08;1.05;;;;;;;-3.88;100.00;100235.09;10430672;28;20421;-60
2023/12/13 04:36:13;;;;;;;3.15;1.10;;;;;;;-3.84;100.00;100241.72;10431968;28;20052;-60
2023/12/13 04:41:16;;;;;;;3.28;1.85;;;;;;;-3.79;100.00;100243.84;10441457;28;20048;-60
2023/12/13 04:46:18;;;;;;;3.33;2.38;;;;;;;-3.75;100.00;100240.56;10443772;28;20048;-60
2023/12/13 04:51:21;;;;;;;4.88;2.95;;;;;;;-3.72;100.00;100234.78;10442607;28;20048;-61
2023/12/13 04:56:24;;;;;;;2.60;1.88;;;;;;;-3.69;100.00;100239.75;10443458;28;20056;-61
2023/12/13 05:01:27;;;;;;;6.68;2.47;;;;;;;-3.62;100.00;100239.81;10445090;28;20417;-60
2023/12/13 05:06:29;;;;;;;2.88;1.83;;;;;;;-3.57;100.00;100231.97;10439461;28;20124;-59
2023/12/13 05:11:31;;;;;;;3.15;2.63;;;;;;;-3.50;100.00;100237.38;10440885;28;20064;-61
2023/12/13 05:16:34;;;;;;;2.15;1.60;;;;;;;-3.50;100.00;100232.81;10439086;28;20048;-59
2023/12/13 05:21:36;;;;;;;3.88;1.88;;;;;;;-3.49;100.00;100229.13;10441549;28;20124;-60
2023/12/13 05:26:38;;;;;;;2.85;1.48;;;;;;;-3.44;100.00;100234.72;10441155;28;20079;-60
2023/12/13 05:31:41;;;;;;;3.67;1.75;;;;;;;-3.43;100.00;100236.38;10442311;28;20052;-60
2023/12/13 05:36:43;;;;;;;3.13;2.17;;;;;;;-3.40;100.00;100244.03;10439948;28;20046;-60
2023/12/13 05:41:45;;;;;;;0.93;0.90;;;;;;;-3.36;100.00;100237.22;10442403;28;20114;-60
2023/12/13 05:46:48;;;;;;;2.08;1.48;;;;;;;-3.32;100.00;100237.66;10444454;28;20056;-60
2023/12/13 05:51:50;;;;;;;1.85;1.50;;;;;;;-3.32;100.00;100243.00;10444285;28;20537;-60
2023/12/13 05:56:53;;;;;;;3.60;1.80;;;;;;;-3.31;100.00;100241.97;10439226;28;20220;-60
2023/12/13 06:01:55;;;;;;;4.45;2.55;;;;;;;-3.28;100.00;100235.41;10437411;28;20038;-60
2023/12/13 06:06:57;;;;;;;2.05;1.15;;;;;;;-3.25;100.00;100237.69;10438447;28;20037;-59
2023/12/13 06:12:00;;;;;;;2.38;1.48;;;;;;;-3.24;100.00;100242.03;10438700;28;20040;-60
2023/12/13 06:17:03;;;;;;;2.30;1.70;;;;;;;-3.19;100.00;100234.19;10436722;28;20128;-59
2023/12/13 06:22:07;;;;;;;2.85;1.48;;;;;;;-3.14;100.00;100247.81;10439023;28;20033;-59
2023/12/13 06:27:09;;;;;;;3.10;1.80;;;;;;;-3.13;100.00;100236.88;10437804;28;20057;-60
2023/12/13 06:32:12;;;;;;;1.52;1.40;;;;;;;-3.12;100.00;100230.50;10431634;28;20036;-59
2023/12/13 06:37:14;;;;;;;3.22;1.65;;;;;;;-3.08;100.00;100263.97;10436923;28;20420;-60
2023/12/13 06:42:17;;;;;;;2.00;1.45;;;;;;;-3.07;100.00;100246.00;10437724;28;20034;-60
2023/12/13 06:47:19;;;;;;;1.13;1.02;;;;;;;-3.07;100.00;100249.50;10438908;28;20049;-59
2023/12/13 06:52:21;;;;;;;2.42;1.88;;;;;;;-3.05;100.00;100257.38;10437299;28;20030;-60
2023/12/13 06:57:24;;;;;;;3.13;1.52;;;;;;;-3.06;100.00;100255.72;10437976;28;20038;-60
2023/12/13 07:02:26;;;;;;;2.97;1.70;;;;;;;-3.06;100.00;100261.91;10438789;28;20056;-60
2023/12/13 07:07:28;;;;;;;1.95;1.42;;;;;;;-3.06;100.00;100258.41;10441323;28;20049;-61
2023/12/13 07:12:31;;;;;;;1.33;1.23;;;;;;;-3.04;100.00;100253.66;10443261;28;20049;-60
2023/12/13 07:17:33;;;;;;;4.03;1.88;;;;;;;-3.02;100.00;100251.59;10431788;28;20048;-60
2023/12/13 07:22:36;;;;;;;3.60;1.80;;;;;;;-3.00;100.00;100264.81;10444951;28;20034;-61
2023/12/13 07:27:38;;;;;;;3.25;2.08;;;;;;;-2.98;100.00;100265.41;10446609;28;20037;-60
2023/12/13 07:32:41;;;;;;;2.42;1.20;;;;;;;-2.98;100.00;100258.19;10437684;28;20041;-60
2023/12/13 07:37:44;;;;;;;3.33;1.83;;;;;;;-2.96;100.00;100272.25;10437356;28;20049;-61
2023/12/13 07:42:47;;;;;;;2.38;2.03;;;;;;;-2.95;100.00;100279.28;10446752;28;20044;-60
2023/12/13 07:47:49;;;;;;;1.65;1.52;;;;;;;-2.92;100.00;100270.00;10448679;28;20043;-61
2023/12/13 07:52:51;;;;;;;3.25;2.30;;;;;;;-2.92;100.00;100273.50;10446922;28;20033;-60
2023/12/13 07:57:54;;;;;;;3.53;1.60;;;;;;;-2.93;100.00;100273.72;10445862;28;20452;-60
2023/12/13 08:02:56;;;;;;;1.52;1.38;;;;;;;-2.90;100.00;100267.94;10446935;28;20417;-61
2023/12/13 08:07:59;;;;;;;2.28;1.80;;;;;;;-2.89;100.00;100278.47;10445222;28;20053;-61
2023/12/13 08:13:01;;;;;;;3.78;2.38;;;;;;;-2.87;100.00;100279.09;10445301;28;20531;-60
2023/12/13 08:18:03;;;;;;;2.55;2.10;;;;;;;-2.87;100.00;100283.63;10446529;28;20041;-60
2023/12/13 08:23:06;;;;;;;2.83;1.80;;;;;;;-2.82;100.00;100283.84;10429523;28;20516;-61
2023/12/13 08:28:09;;;;;;;2.00;1.67;;;;;;;-2.81;100.00;100278.28;10432191;28;20041;-60
2023/12/13 08:33:12;;;;;;;3.35;1.50;;;;;;;-2.78;100.00;100287.78;10426483;28;20444;-61
2023/12/13 08:38:14;;;;;;;2.13;1.92;;;;;;;-2.76;100.00;100294.63;10442463;28;20457;-60
2023/12/13 08:43:16;;;;;;;3.75;2.60;;;;;;;-2.78;100.00;100294.00;10441044;28;20108;-61
2023/12/13 08:48:19;;;;;;;1.52;1.05;;;;;;;-2.82;100.00;100299.97;10428892;28;20029;-61
2023/12/13 08:53:21;;;;;;;1.52;1.38;;;;;;;-2.81;100.00;100299.75;10437925;28;20413;-61
2023/12/13 08:58:23;;;;;;;2.58;1.80;;;;;;;-2.75;100.00;100303.50;10446186;28;20060;-61
2023/12/13 09:03:27;;;;;;;2.47;1.90;;;;;;;-2.75;100.00;100304.34;10447115;28;20095;-61
2023/12/13 09:08:29;;;;;;;3.08;2.17;;;;;;;-2.72;100.00;100297.72;10447103;28;20053;-61
2023/12/13 09:13:33;;;;;;;2.42;2.00;;;;;;;-2.75;100.00;100301.66;10445870;28;20124;-60
2023/12/13 09:18:35;;;;;;;3.63;2.17;;;;;;;-2.69;100.00;100301.84;10439097;28;20079;-61
2023/12/13 09:23:40;;;;;;;2.60;1.90;;;;;;;-2.72;100.00;100304.94;10445100;28;20091;-60
2023/12/13 09:28:43;;;;;;;2.28;1.90;;;;;;;-2.73;100.00;100304.13;10444226;28;20037;-61
2023/12/13 09:33:45;;;;;;;2.40;1.70;;;;;;;-2.76;100.00;100317.97;10442564;28;20033;-62
2023/12/13 09:38:48;;;;;;;2.65;1.63;;;;;;;-2.79;100.00;100311.13;10444082;28;20421;-61
2023/12/13 09:43:54;;;;;;;2.20;1.67;;;;;;;-2.75;100.00;100309.69;10443497;28;20057;-61
2023/12/13 09:48:56;;;;;;;1.27;1.13;;;;;;;-2.69;100.00;100305.38;10442919;28;20041;-60
2023/12/13 09:53:59;;;;;;;2.95;1.75;;;;;;;-2.70;100.00;100309.09;10428933;28;20417;-61
2023/12/13 09:59:02;;;;;;;4.18;2.33;;;;;;;-2.67;100.00;100308.69;10424115;28;20045;-61
2023/12/13 10:04:05;;;;;;;2.90;2.17;;;;;;;-2.68;100.00;100322.31;10401757;28;20061;-61
2023/12/13 10:09:07;;;;;;;1.98;1.75;;;;;;;-2.63;100.00;100309.91;10436610;28;20045;-61
2023/12/13 10:14:10;;;;;;;2.30;1.52;;;;;;;-2.61;100.00;100307.03;10443091;28;20503;-61
2023/12/13 10:19:12;;;;;;;4.10;2.40;;;;;;;-2.56;100.00;100305.41;10443084;28;20033;-60
2023/12/13 10:24:15;;;;;;;2.28;2.00;;;;;;;-2.57;99.88;100317.19;10440096;28;20409;-61
2023/12/13 10:29:21;;;;;;;1.55;1.30;;;;;;;-2.57;99.41;100308.31;10442562;28;20041;-61
2023/12/13 10:34:23;;;;;;;3.63;2.40;;;;;;;-2.55;99.94;100301.69;10439151;28;20036;-61
2023/12/13 10:39:28;;;;;;;2.58;1.42;;;;;;;-2.53;99.86;100307.69;10440650;28;20033;-61
2023/12/13 10:44:32;;;;;;;0.82;0.82;;;;;;;-2.52;99.88;100306.66;10447274;28;20052;-60
2023/12/13 10:49:35;;;;;;;2.47;2.28;;;;;;;-2.47;99.65;100314.91;10447996;28;20536;-61
2023/12/13 10:54:39;;;;;;;2.28;1.75;;;;;;;-2.50;99.50;100320.69;10435268;28;20029;-61
2023/12/13 10:59:42;;;;;;;2.00;1.55;;;;;;;-2.56;99.89;100323.38;10447621;28;20045;-60
2023/12/13 11:04:45;;;;;;;3.97;2.05;;;;;;;-2.58;100.00;100322.75;10447293;28;20038;-60
2023/12/13 11:09:51;;;;;;;3.10;2.38;;;;;;;-2.65;100.00;100321.91;10448085;28;20073;-60
2023/12/13 11:14:53;;;;;;;1.85;1.45;;;;;;;-2.65;100.00;100327.28;10449707;28;20030;-59
2023/12/13 11:19:57;;;;;;;3.53;2.38;;;;;;;-2.61;100.00;100317.78;10447089;28;20052;-60
2023/12/13 11:25:06;;;;;;;4.30;2.47;;;;;;;-2.60;99.93;100335.56;10447417;28;20418;-60
2023/12/13 11:30:13;;;;;;;3.92;2.33;;;;;;;-2.53;99.90;100331.84;10446042;28;20040;-64
2023/12/13 11:35:17;;;;;;;3.17;2.88;;;;;;;-2.56;99.30;100328.75;10444975;28;20037;-60
2023/12/13 11:40:20;;;;;;;2.72;1.88;;;;;;;-2.58;98.86;100326.28;10435371;28;20437;-61
2023/12/13 11:45:23;;;;;;;2.75;2.20;;;;;;;-2.52;98.60;100328.13;10447309;28;20072;-61
2023/12/13 11:50:25;;;;;;;3.65;2.15;;;;;;;-2.51;97.75;100339.72;10428101;28;20045;-61
2023/12/13 11:55:28;;;;;;;2.63;1.63;;;;;;;-2.47;97.42;100335.56;10448928;28;20125;-60
2023/12/13 12:00:31;;;;;;;3.03;2.55;;;;;;;-2.48;97.56;100331.22;10446822;28;20536;-61
2023/12/13 12:05:34;;;;;;;3.90;2.10;;;;;;;-2.46;97.61;100340.75;10447689;28;20041;-61
2023/12/13 12:10:36;;;;;;;2.40;1.67;;;;;;;-2.46;97.32;100351.50;10448063;28;20428;-60
2023/12/13 12:15:39;;;;;;;3.03;1.90;;;;;;;-2.42;96.95;100348.41;10446539;28;20044;-61
2023/12/13 12:20:42;;;;;;;4.25;2.25;;;;;;;-2.43;96.67;100358.31;10447038;28;20045;-60
2023/12/13 12:25:44;;;;;;;3.45;2.28;;;;;;;-2.48;96.89;100358.09;10479157;28;20178;-60
2023/12/13 12:30:48;;;;;;;4.10;2.03;;;;;;;-2.50;96.69;100368.22;10487114;28;20037;-60
2023/12/13 12:35:51;;;;;;;1.83;1.38;;;;;;;-2.45;96.62;100376.50;10443270;28;20041;-61
2023/12/13 12:40:55;;;;;;;2.97;1.63;;;;;;;-2.54;96.72;100377.72;10443192;28;20544;-61
2023/12/13 12:45:59;;;;;;;1.90;1.58;;;;;;;-2.57;96.72;100372.75;10444088;28;20428;-61
2023/12/13 12:51:01;;;;;;;4.38;2.67;;;;;;;-2.58;96.79;100376.47;10444659;28;20038;-61
2023/12/13 12:56:04;;;;;;;3.92;3.10;;;;;;;-2.62;97.39;100372.53;10446018;28;20045;-61
2023/12/13 13:01:06;;;;;;;4.05;2.65;;;;;;;-2.65;97.53;100380.97;10441039;28;20053;-61
2023/12/13 13:06:09;;;;;;;2.10;1.67;;;;;;;-2.70;97.82;100389.66;10461947;28;20036;-61
2023/12/13 13:11:12;;;;;;;9.90;2.30;;;;;;;-2.74;97.89;100389.22;10451963;28;20029;-61
2023/12/13 13:16:14;;;;;;;5.03;3.00;;;;;;;-2.75;98.26;100392.94;10443617;28;20080;-61
2023/12/13 13:21:17;;;;;;;4.95;3.03;;;;;;;-2.70;98.67;100394.19;10437904;28;20828;-61
2023/12/13 13:26:20;;;;;;;6.10;2.65;;;;;;;-2.66;98.27;100400.81;10443576;28;20040;-61
2023/12/13 13:31:22;;;;;;;2.88;2.10;;;;;;;-2.69;98.31;100411.97;10444159;28;20052;-61
2023/12/13 13:36:25;;;;;;;4.72;2.42;;;;;;;-2.70;98.75;100418.38;10444178;28;20042;-61
2023/12/13 13:41:28;;;;;;;6.00;1.20;;;;;;;-2.78;99.48;100408.59;10410704;28;20038;-61
2023/12/13 13:46:30;;;;;;;5.03;3.10;;;;;;;-2.86;99.50;100417.66;10405575;28;20049;-61
2023/12/13 13:51:34;;;;;;;5.22;2.80;;;;;;;-2.84;100.00;100412.94;10439423;28;20036;-61
2023/12/13 13:56:37;;;;;;;8.15;3.60;;;;;;;-2.85;99.95;100429.25;10402515;28;20425;-60
2023/12/13 14:01:40;;;;;;;3.35;2.58;;;;;;;-2.85;99.84;100430.06;10402359;28;20045;-61
2023/12/13 14:06:43;;;;;;;5.10;2.60;;;;;;;-2.84;99.84;100429.03;10402195;28;20065;-60
2023/12/13 14:11:47;;;;;;;3.38;2.53;;;;;;;-2.83;99.75;100421.81;10405629;28;20038;-62
2023/12/13 14:16:49;;;;;;;3.30;2.40;;;;;;;-2.84;99.97;100423.66;10398213;28;20045;-61
2023/12/13 14:21:52;;;;;;;4.97;2.80;;;;;;;-2.83;99.81;100427.19;10398948;28;20038;-60
2023/12/13 14:26:54;;;;;;;4.72;3.00;;;;;;;-2.84;99.56;100426.34;10427745;28;20050;-62
2023/12/13 14:31:56;;;;;;;3.25;2.00;;;;;;;-2.91;99.46;100425.50;10423881;28;20033;-62
2023/12/13 14:36:59;;;;;;;5.03;2.85;;;;;;;-2.88;99.49;100429.63;10430137;28;20041;-64
2023/12/13 14:42:01;;;;;;;5.38;3.47;;;;;;;-2.94;99.28;100436.66;10436180;28;20038;-61
2023/12/13 14:47:04;;;;;;;3.35;2.53;;;;;;;-2.95;99.29;100440.34;10420128;28;20059;-60
2023/12/13 14:52:08;;;;;;;3.92;2.90;;;;;;;-3.00;99.61;100441.94;10440955;28;20037;-63
2023/12/13 14:57:13;;;;;;;3.38;2.25;;;;;;;-3.05;99.28;100446.06;10430270;28;20049;-61
2023/12/13 15:02:21;;;;;;;3.70;2.92;;;;;;;-3.07;99.63;100452.66;10423749;28;20033;-60
2023/12/13 15:07:24;;;;;;;3.47;2.20;;;;;;;-3.06;99.69;100448.94;10434908;28;20033;-59
2023/12/13 15:12:26;;;;;;;3.03;1.92;;;;;;;-3.06;99.68;100451.63;10433237;28;20059;-58
2023/12/13 15:17:28;;;;;;;1.83;1.65;;;;;;;-3.00;99.39;100466.13;10438744;28;20519;-61
2023/12/13 15:22:31;;;;;;;4.95;2.67;;;;;;;-3.07;99.21;100458.84;10431844;28;20042;-60
2023/12/13 15:27:33;;;;;;;3.05;2.63;;;;;;;-3.10;99.29;100461.13;10435845;28;20037;-59
2023/12/13 15:32:36;;;;;;;3.28;2.10;;;;;;;-3.07;99.25;100466.09;10443434;28;20053;-64
2023/12/13 15:37:39;;;;;;;4.88;2.67;;;;;;;-3.08;98.93;100469.78;10445549;28;20136;-59
2023/12/13 15:42:44;;;;;;;4.57;2.92;;;;;;;-3.16;99.30;100481.50;10413257;28;20041;-59
2023/12/13 15:47:46;;;;;;;5.85;2.80;;;;;;;-3.12;99.58;100469.38;10446258;28;20076;-61
2023/12/13 15:52:49;;;;;;;6.45;3.53;;;;;;;-3.15;99.83;100488.50;10441639;28;20614;-61
2023/12/13 15:57:51;;;;;;;5.45;2.88;;;;;;;-3.13;99.48;100485.63;10442095;28;20048;-61
2023/12/13 16:02:54;;;;;;;3.58;2.22;;;;;;;-3.13;99.31;100482.94;10432360;28;20140;-59
2023/12/13 16:07:56;;;;;;;3.55;1.98;;;;;;;-3.13;99.76;100491.81;10434894;28;20044;-61
2023/12/13 16:13:03;;;;;;;2.55;1.65;;;;;;;-3.16;100.00;100492.22;10434186;28;20038;-59
2023/12/13 16:18:06;;;;;;;2.65;1.83;;;;;;;-3.18;100.00;100493.44;10438748;28;20070;-61
2023/12/13 16:23:08;;;;;;;5.35;3.60;;;;;;;-3.20;100.00;100495.50;10437516;28;20038;-61
2023/12/13 16:28:10;;;;;;;6.93;3.08;;;;;;;-3.19;100.00;100499.84;10442770;28;20045;-61
2023/12/13 16:33:15;;;;;;;2.38;2.15;;;;;;;-3.20;100.00;100498.19;10441028;28;20398;-61
2023/12/13 16:38:20;;;;;;;3.72;2.15;;;;;;;-3.26;100.00;100497.13;10427556;28;20057;-61
2023/12/13 16:43:23;;;;;;;3.97;2.63;;;;;;;-3.30;100.00;100495.00;10438138;28;20049;-61
2023/12/13 16:48:27;;;;;;;4.68;2.97;;;;;;;-3.30;100.00;100503.88;10442563;28;20042;-60
2023/12/13 16:53:29;;;;;;;4.93;2.75;;;;;;;-3.27;100.00;100502.69;10442234;28;20037;-59
2023/12/13 16:58:32;;;;;;;4.35;3.10;;;;;;;-3.27;100.00;100505.38;10443124;28;20040;-61
2023/12/13 17:03:38;;;;;;;5.45;3.42;;;;;;;-3.29;100.00;100496.69;10440331;28;20056;-61
2023/12/13 17:08:41;;;;;;;8.27;3.28;;;;;;;-3.21;100.00;100496.53;10443572;28;20408;-60
2023/12/13 17:13:46;;;;;;;2.10;1.85;;;;;;;-3.18;100.00;100496.97;10439685;28;20036;-60
2023/12/13 17:18:49;;;;;;;4.88;3.70;;;;;;;-3.24;100.00;100505.81;10435834;28;20439;-61
2023/12/13 17:23:51;;;;;;;6.70;3.90;;;;;;;-3.27;100.00;100511.56;10402608;28;20445;-62
2023/12/13 17:28:53;;;;;;;3.95;2.35;;;;;;;-3.25;100.00;100512.19;10435573;28;20029;-60
2023/12/13 17:33:56;;;;;;;5.60;3.22;;;;;;;-3.21;100.00;100508.09;10433319;28;20069;-62
2023/12/13 17:39:00;;;;;;;5.80;2.88;;;;;;;-3.23;99.80;100517.38;10440549;28;20037;-61
2023/12/13 17:44:03;;;;;;;4.53;3.03;;;;;;;-3.22;100.00;100510.97;10431093;28;20052;-62
2023/12/13 17:49:07;;;;;;;8.75;4.35;;;;;;;-3.16;99.58;100521.75;10437245;28;20540;-60
2023/12/13 17:54:10;;;;;;;3.78;2.88;;;;;;;-3.22;99.51;100524.38;10424367;28;20037;-61
2023/12/13 17:59:12;;;;;;;4.65;3.08;;;;;;;-3.22;99.29;100521.72;10437921;28;20432;-60
2023/12/13 18:04:15;;;;;;;4.55;3.08;;;;;;;-3.21;98.73;100536.78;10436953;28;20044;-61
2023/12/13 18:09:17;;;;;;;2.95;1.88;;;;;;;-3.20;99.04;100543.81;10438301;28;20044;-60
2023/12/13 18:14:20;;;;;;;4.63;3.17;;;;;;;-3.18;98.87;100539.06;10435360;28;20056;-63
2023/12/13 18:19:25;;;;;;;7.88;3.40;;;;;;;-3.19;98.56;100529.38;10435832;28;20060;-63
2023/12/13 18:24:28;;;;;;;2.30;1.77;;;;;;;-3.19;98.33;100545.47;10436460;28;20050;-62
2023/12/13 18:29:31;;;;;;;7.50;4.47;;;;;;;-3.20;98.77;100533.91;10432046;28;20037;-63
2023/12/13 18:34:34;;;;;;;3.95;3.10;;;;;;;-3.23;98.40;100545.03;10432942;28;20037;-62
2023/12/13 18:39:36;;;;;;;5.68;4.00;;;;;;;-3.27;98.79;100537.56;10435293;28;20059;-60
2023/12/13 18:44:39;;;;;;;5.32;3.75;;;;;;;-3.21;98.91;100539.47;10437176;28;20052;-63
2023/12/13 18:49:42;;;;;;;4.40;3.10;;;;;;;-3.23;98.65;100549.56;10436777;28;20053;-61
2023/12/13 18:54:44;;;;;;;7.35;4.47;;;;;;;-3.23;99.07;100554.94;10431885;28;20045;-61
2023/12/13 18:59:47;;;;;;;4.70;3.13;;;;;;;-3.25;99.02;100547.06;10430985;28;20037;-61
2023/12/13 19:04:49;;;;;;;5.45;3.05;;;;;;;-3.30;99.02;100552.16;10436000;28;20770;-60
2023/12/13 19:09:52;;;;;;;5.68;3.05;;;;;;;-3.27;99.00;100553.66;10440198;28;20634;-63
2023/12/13 19:14:54;;;;;;;4.20;3.17;;;;;;;-3.29;99.32;100561.09;10440570;28;20030;-63
2023/12/13 19:19:57;;;;;;;3.95;3.47;;;;;;;-3.33;98.31;100564.13;10445482;28;20882;-62
2023/12/13 19:24:59;;;;;;;2.97;1.67;;;;;;;-3.34;99.22;100567.00;10440723;28;20044;-63
2023/12/13 19:30:01;;;;;;;9.00;3.97;;;;;;;-3.37;99.38;100570.06;10446037;28;20059;-63
2023/12/13 19:35:06;;;;;;;2.75;2.03;;;;;;;-3.36;99.74;100567.19;10442094;28;20044;-61
2023/12/13 19:40:09;;;;;;;4.38;2.63;;;;;;;-3.31;99.59;100573.81;10438792;28;20049;-61
2023/12/13 19:45:12;;;;;;;2.72;2.08;;;;;;;-3.27;99.33;100561.72;10442967;28;20057;-61
2023/12/13 19:50:15;;;;;;;3.65;3.00;;;;;;;-3.28;99.16;100576.97;10435892;28;20033;-62
2023/12/13 19:55:17;;;;;;;5.70;3.17;;;;;;;-3.23;99.05;100579.91;10440813;28;21706;-62
2023/12/13 20:00:21;;;;;;;4.63;2.85;;;;;;;-3.14;98.56;100580.59;10438273;28;20037;-62
2023/12/13 20:05:24;;;;;;;4.10;2.42;;;;;;;-3.18;98.26;100590.88;10434749;28;20038;-61
2023/12/13 20:10:27;;;;;;;5.90;3.50;;;;;;;-3.19;98.21;100583.03;10443229;28;20042;-61
2023/12/13 20:15:29;;;;;;;3.75;2.38;;;;;;;-3.19;98.15;100593.75;10435735;28;20043;-61
2023/12/13 20:20:31;;;;;;;3.47;3.17;;;;;;;-3.23;97.42;100592.50;10440301;28;20052;-62
2023/12/13 20:25:34;;;;;;;5.68;3.42;;;;;;;-3.21;97.53;100603.88;10438597;28;20049;-60
2023/12/13 20:30:36;;;;;;;4.45;2.80;;;;;;;-3.28;97.48;100603.81;10438036;28;20501;-61
2023/12/13 20:35:41;;;;;;;2.88;1.67;;;;;;;-3.27;97.21;100608.16;10441565;28;20584;-62
2023/12/13 20:40:43;;;;;;;5.97;2.85;;;;;;;-3.25;96.91;100607.97;10431690;28;20045;-61
2023/12/13 20:45:46;;;;;;;4.47;2.50;;;;;;;-3.33;96.83;100603.53;10436307;28;20049;-61
2023/12/13 20:50:49;;;;;;;4.63;2.85;;;;;;;-3.35;96.65;100611.78;10440383;28;20045;-62
2023/12/13 20:55:53;;;;;;;4.00;2.72;;;;;;;-3.39;96.57;100615.88;10436933;28;20036;-62
2023/12/13 21:00:56;;;;;;;4.47;3.15;;;;;;;-3.41;96.68;100628.66;10455310;28;20125;-62
2023/12/13 21:05:58;;;;;;;8.90;5.18;;;;;;;-3.37;96.63;100619.19;10440491;28;20737;-62
2023/12/13 21:11:02;;;;;;;5.28;4.35;;;;;;;-3.35;96.06;100629.72;10439616;28;20033;-63
2023/12/13 21:16:04;;;;;;;7.55;4.55;;;;;;;-3.35;96.33;100633.25;10441213;28;20029;-62
2023/12/13 21:21:07;;;;;;;6.80;4.07;;;;;;;-3.36;95.75;100628.06;10437053;28;20044;-62
2023/12/13 21:26:09;;;;;;;6.65;3.80;;;;;;;-3.38;95.76;100639.00;10440227;28;20049;-61
2023/12/13 21:31:11;;;;;;;5.50;4.60;;;;;;;-3.41;95.64;100628.66;10436636;28;20038;-61
2023/12/13 21:36:14;;;;;;;6.55;3.70;;;;;;;-3.40;95.79;100641.03;10453601;28;20505;-61
2023/12/13 21:41:18;;;;;;;4.68;3.97;;;;;;;-3.45;95.27;100638.09;10441906;28;20041;-61
2023/12/13 21:46:22;;;;;;;6.53;4.43;;;;;;;-3.43;95.38;100646.78;10450316;28;20393;-60
2023/12/13 21:51:25;;;;;;;6.15;4.13;;;;;;;-3.46;95.18;100640.97;10439691;28;20049;-61
2023/12/13 21:56:28;;;;;;;6.65;4.13;;;;;;;-3.53;96.12;100648.94;10428223;28;20413;-61
2023/12/13 22:01:31;;;;;;;5.45;4.10;;;;;;;-3.55;96.27;100644.78;10438338;28;20429;-60
2023/12/13 22:06:33;;;;;;;6.00;4.38;;;;;;;-3.58;96.08;100640.63;10435185;28;20044;-61
2023/12/13 22:11:37;;;;;;;5.72;3.38;;;;;;;-3.55;95.67;100648.28;10437047;28;20041;-60
2023/12/13 22:16:40;;;;;;;4.60;3.22;;;;;;;-3.61;95.97;100643.69;10441580;28;20052;-61
2023/12/13 22:21:48;;;;;;;4.22;3.03;;;;;;;-3.62;96.29;100651.94;10435809;28;20045;-60
2023/12/13 22:26:52;;;;;;;5.10;3.17;;;;;;;-3.64;96.65;100652.13;10435770;28;20037;-61
2023/12/13 22:32:00;;;;;;;3.72;2.33;;;;;;;-3.71;97.19;100656.56;10432064;28;20048;-61
2023/12/13 22:37:03;;;;;;;6.47;4.00;;;;;;;-3.72;97.18;100662.94;10417828;28;20040;-61
2023/12/13 22:42:06;;;;;;;4.80;3.13;;;;;;;-3.79;98.09;100659.38;10418626;28;20066;-60
2023/12/13 22:47:08;;;;;;;7.70;3.40;;;;;;;-3.80;98.03;100658.53;10430528;28;20049;-61
2023/12/13 22:52:11;;;;;;;4.78;3.15;;;;;;;-3.87;98.14;100670.16;10434111;28;20040;-60
2023/12/13 22:57:13;;;;;;;6.53;3.72;;;;;;;-3.93;98.57;100665.56;10428074;28;20037;-61
2023/12/13 23:02:16;;;;;;;5.05;2.60;;;;;;;-3.92;99.78;100667.22;10440644;28;20049;-60
2023/12/13 23:07:18;;;;;;;4.10;2.97;;;;;;;-3.95;99.87;100671.94;10428224;28;20536;-62